Time;durP1;ratioP1;P1;durP2;ratioP2;P2;SDS_P1;SDS_P2;PMS_P1;PMS_P2;Temp;Humidity;BMP_temperature;BMP_pressure;BME280_temperature;BME280_humidity;BME280_pressure;Samples;Min_cycle;Max_cycle;Signal;HPM_P1;HPM_P2
2024/04/06 00:01:21;;;;;;;1.80;1.00;;;14.10;91.20;;;;;;4994146;28;20031;-82
2024/04/06 00:03:47;;;;;;;0.95;0.73;;;14.10;91.30;;;;;;4992729;28;20095;-83
2024/04/06 00:06:13;;;;;;;1.58;0.80;;;14.10;91.30;;;;;;4992823;28;20038;-83
2024/04/06 00:08:38;;;;;;;2.00;1.00;;;14.10;91.30;;;;;;4993950;28;20027;-83
2024/04/06 00:11:04;;;;;;;1.67;1.10;;;14.20;91.30;;;;;;5009002;28;20085;-82
2024/04/06 00:13:29;;;;;;;2.67;0.90;;;14.20;91.30;;;;;;4993852;28;20018;-83
2024/04/06 00:15:55;;;;;;;1.60;0.73;;;14.20;91.30;;;;;;4994086;28;20026;-83
2024/04/06 00:18:21;;;;;;;1.40;0.85;;;14.10;91.30;;;;;;5011784;28;20513;-81
2024/04/06 00:20:46;;;;;;;1.67;0.80;;;14.20;91.30;;;;;;5013208;28;20038;-83
2024/04/06 00:23:12;;;;;;;1.45;0.88;;;14.20;91.30;;;;;;5011800;28;20029;-81
2024/04/06 00:25:37;;;;;;;1.17;0.80;;;14.30;91.30;;;;;;5013489;28;20032;-83
2024/04/06 00:28:03;;;;;;;1.88;0.85;;;14.20;91.30;;;;;;5011283;28;20112;-83
2024/04/06 00:30:29;;;;;;;2.08;0.82;;;14.10;91.30;;;;;;5013340;28;20022;-83
2024/04/06 00:32:54;;;;;;;1.20;0.80;;;14.20;91.30;;;;;;5013331;28;20031;-84
2024/04/06 00:35:20;;;;;;;1.67;0.90;;;14.20;91.30;;;;;;5013444;28;20394;-84
2024/04/06 00:37:45;;;;;;;2.05;1.15;;;14.20;91.30;;;;;;5013134;28;20434;-83
2024/04/06 00:40:11;;;;;;;1.38;0.80;;;14.10;91.30;;;;;;5011496;28;20091;-83
2024/04/06 00:42:36;;;;;;;1.65;0.90;;;14.20;91.30;;;;;;5011599;28;20029;-83
2024/04/06 00:45:03;;;;;;;2.15;1.00;;;14.00;91.30;;;;;;5013413;28;20033;-83
2024/04/06 00:47:28;;;;;;;1.20;0.70;;;14.20;91.30;;;;;;5012957;28;20577;-84
2024/04/06 00:49:54;;;;;;;2.03;1.00;;;14.20;91.30;;;;;;5012755;28;20033;-83
2024/04/06 00:52:19;;;;;;;2.58;0.80;;;14.20;91.30;;;;;;5011259;28;20049;-83
2024/04/06 00:54:45;;;;;;;2.45;0.90;;;14.20;91.30;;;;;;5011492;28;20030;-84
2024/04/06 00:57:12;;;;;;;1.95;0.90;;;14.00;91.30;;;;;;5011735;28;20062;-83
2024/04/06 00:59:38;;;;;;;1.60;0.85;;;14.10;91.30;;;;;;5011455;28;20117;-84
2024/04/06 01:02:05;;;;;;;1.27;0.70;;;14.20;91.30;;;;;;5012901;28;20481;-83
2024/04/06 01:04:30;;;;;;;1.38;0.73;;;14.10;91.30;;;;;;5012977;28;20037;-83
2024/04/06 01:06:56;;;;;;;1.90;0.90;;;14.20;91.30;;;;;;5012726;28;20386;-83
2024/04/06 01:09:23;;;;;;;2.05;1.10;;;14.20;91.30;;;;;;5012602;28;20042;-83
2024/04/06 01:11:48;;;;;;;1.60;0.80;;;14.10;91.30;;;;;;5011450;28;20650;-83
2024/04/06 01:14:15;;;;;;;1.75;1.00;;;14.20;91.30;;;;;;5011451;28;20022;-85
2024/04/06 01:16:40;;;;;;;2.03;0.80;;;14.00;91.30;;;;;;5014963;28;20026;-83
2024/04/06 01:19:06;;;;;;;1.38;0.70;;;14.10;91.30;;;;;;5015406;28;20026;-83
2024/04/06 01:21:31;;;;;;;1.58;0.90;;;14.20;91.30;;;;;;5016691;28;20061;-83
2024/04/06 01:23:57;;;;;;;0.98;0.80;;;14.10;91.30;;;;;;5015403;28;20375;-83
2024/04/06 01:26:23;;;;;;;2.03;0.90;;;14.10;91.30;;;;;;5015369;28;20030;-83
2024/04/06 01:28:49;;;;;;;2.10;0.95;;;14.10;91.30;;;;;;5015056;28;20025;-83
2024/04/06 01:31:15;;;;;;;1.40;0.90;;;14.10;91.30;;;;;;5015115;28;20502;-83
2024/04/06 01:33:40;;;;;;;2.03;1.02;;;14.10;91.30;;;;;;5016510;28;20029;-83
2024/04/06 01:36:07;;;;;;;1.70;1.00;;;14.20;91.30;;;;;;5016612;28;20029;-83
2024/04/06 01:38:33;;;;;;;1.92;1.00;;;14.20;91.30;;;;;;5016472;28;20030;-83
2024/04/06 01:41:01;;;;;;;2.00;0.90;;;14.20;91.30;;;;;;5016434;28;20033;-83
2024/04/06 01:43:27;;;;;;;2.10;1.10;;;14.20;91.30;;;;;;5016209;28;20034;-83
2024/04/06 01:45:52;;;;;;;1.27;0.70;;;14.10;91.30;;;;;;5016038;28;20030;-83
2024/04/06 01:48:18;;;;;;;2.13;0.98;;;14.20;91.30;;;;;;5014959;28;20435;-83
2024/04/06 01:50:44;;;;;;;2.60;1.00;;;14.10;91.30;;;;;;5016397;28;20026;-83
2024/04/06 01:53:09;;;;;;;1.40;0.80;;;14.10;91.30;;;;;;5014894;28;20478;-82
2024/04/06 01:55:35;;;;;;;2.20;1.15;;;14.20;91.30;;;;;;5015098;28;20825;-84
2024/04/06 01:58:00;;;;;;;2.20;1.08;;;14.20;91.30;;;;;;5014849;28;20620;-83
2024/04/06 02:00:26;;;;;;;1.88;1.00;;;14.10;91.30;;;;;;5014208;28;20033;-83
2024/04/06 02:02:51;;;;;;;2.05;0.80;;;14.30;91.30;;;;;;5015807;28;20368;-83
2024/04/06 02:05:17;;;;;;;1.48;0.85;;;14.10;91.30;;;;;;5015973;28;20030;-83
2024/04/06 02:07:42;;;;;;;1.48;0.90;;;14.10;91.30;;;;;;5016005;28;20429;-81
2024/04/06 02:10:08;;;;;;;1.63;0.90;;;14.10;91.30;;;;;;5014532;28;20486;-83
2024/04/06 02:12:33;;;;;;;1.17;0.80;;;14.10;91.30;;;;;;5015647;28;20101;-83
2024/04/06 02:14:59;;;;;;;1.42;0.90;;;14.20;91.30;;;;;;5015718;28;20072;-81
2024/04/06 02:17:24;;;;;;;1.83;1.00;;;14.10;91.30;;;;;;5015708;28;20038;-83
2024/04/06 02:19:50;;;;;;;2.38;1.00;;;14.30;91.30;;;;;;5015516;28;20037;-82
2024/04/06 02:22:16;;;;;;;1.20;0.80;;;14.20;91.30;;;;;;5014395;28;20033;-83
2024/04/06 02:24:41;;;;;;;1.20;0.70;;;14.10;91.30;;;;;;5014027;28;20029;-81
2024/04/06 02:27:07;;;;;;;1.50;0.73;;;14.20;91.30;;;;;;5013910;28;20430;-81
2024/04/06 02:29:33;;;;;;;2.20;0.95;;;14.20;91.30;;;;;;5013778;28;20065;-83
2024/04/06 02:31:58;;;;;;;2.25;1.05;;;14.20;91.30;;;;;;5015710;28;20033;-83
2024/04/06 02:34:24;;;;;;;1.35;0.85;;;14.30;91.30;;;;;;5014067;28;20390;-83
2024/04/06 02:36:50;;;;;;;1.38;0.80;;;14.10;91.30;;;;;;5014178;28;20084;-83
2024/04/06 02:39:15;;;;;;;2.22;1.10;;;14.20;91.30;;;;;;5014126;28;20104;-83
2024/04/06 02:41:41;;;;;;;1.30;0.85;;;14.20;91.30;;;;;;5015033;28;20058;-84
2024/04/06 02:44:07;;;;;;;1.65;0.98;;;14.20;91.30;;;;;;5014904;28;20038;-83
2024/04/06 02:46:33;;;;;;;2.35;0.93;;;14.20;91.30;;;;;;5013909;28;20021;-83
2024/04/06 02:48:59;;;;;;;2.15;0.98;;;14.10;91.30;;;;;;5013815;28;20383;-83
2024/04/06 02:51:25;;;;;;;1.63;0.88;;;14.20;91.30;;;;;;5013849;28;20033;-83
2024/04/06 02:53:51;;;;;;;1.73;0.77;;;14.10;91.30;;;;;;5013839;28;20436;-85
2024/04/06 02:56:16;;;;;;;1.98;0.85;;;14.10;91.30;;;;;;5013646;28;20026;-82
2024/04/06 02:58:45;;;;;;;1.08;0.70;;;14.20;91.30;;;;;;5013619;28;20171;-83
2024/04/06 03:01:11;;;;;;;2.30;1.10;;;14.20;91.30;;;;;;5014811;28;20026;-81
2024/04/06 03:03:36;;;;;;;1.58;0.80;;;14.20;91.30;;;;;;5014803;28;20475;-83
2024/04/06 03:06:02;;;;;;;1.75;0.88;;;14.10;91.30;;;;;;5013558;28;20034;-83
2024/04/06 03:08:27;;;;;;;1.25;0.80;;;14.20;91.30;;;;;;5014984;28;20026;-83
2024/04/06 03:10:53;;;;;;;1.30;0.90;;;14.20;91.30;;;;;;5013277;28;20028;-83
2024/04/06 03:13:19;;;;;;;1.60;0.70;;;14.20;91.30;;;;;;5013357;28;20022;-82
2024/04/06 03:15:45;;;;;;;1.08;0.70;;;14.10;91.30;;;;;;5014613;28;20032;-83
2024/04/06 03:18:12;;;;;;;2.00;0.88;;;14.10;91.30;;;;;;5014572;28;20779;-83
2024/04/06 03:20:38;;;;;;;1.10;0.80;;;14.20;91.30;;;;;;5013467;28;20486;-83
2024/04/06 03:23:04;;;;;;;1.60;0.90;;;14.20;91.30;;;;;;5013023;28;20116;-83
2024/04/06 03:25:31;;;;;;;1.23;0.80;;;14.20;91.50;;;;;;5013131;28;20022;-83
2024/04/06 03:27:57;;;;;;;1.27;0.90;;;14.10;91.30;;;;;;5014449;28;20026;-82
2024/04/06 03:30:25;;;;;;;1.35;0.82;;;14.10;91.30;;;;;;5014178;28;20096;-82
2024/04/06 03:32:50;;;;;;;1.13;0.80;;;14.10;91.30;;;;;;5013158;28;20058;-82
2024/04/06 03:35:16;;;;;;;1.83;0.80;;;14.10;91.30;;;;;;5014479;28;20411;-83
2024/04/06 03:37:42;;;;;;;1.08;0.75;;;14.20;91.30;;;;;;5012331;28;20541;-83
2024/04/06 03:40:09;;;;;;;1.90;0.88;;;14.10;91.30;;;;;;5014140;28;20032;-84
2024/04/06 03:42:35;;;;;;;2.22;1.00;;;14.20;91.30;;;;;;5012862;28;20073;-83
2024/04/06 03:45:00;;;;;;;1.85;0.90;;;14.20;91.30;;;;;;5013931;28;20030;-83
2024/04/06 03:47:27;;;;;;;1.73;0.90;;;14.10;91.30;;;;;;5013872;28;20117;-83
2024/04/06 03:49:53;;;;;;;1.40;0.80;;;14.10;91.30;;;;;;5013656;28;20127;-82
2024/04/06 03:52:19;;;;;;;1.27;0.77;;;14.20;91.30;;;;;;5012645;28;20030;-82
2024/04/06 03:54:44;;;;;;;1.70;0.93;;;14.20;91.30;;;;;;5012617;28;20104;-82
2024/04/06 03:57:10;;;;;;;1.60;0.77;;;14.10;91.30;;;;;;5013867;28;20030;-83
2024/04/06 03:59:35;;;;;;;1.73;0.82;;;14.20;91.30;;;;;;5012443;28;20022;-82
2024/04/06 04:02:01;;;;;;;1.67;0.80;;;14.10;91.30;;;;;;5013739;28;20475;-83
2024/04/06 04:04:27;;;;;;;1.23;0.80;;;14.20;91.30;;;;;;5012161;28;20478;-82
2024/04/06 04:06:52;;;;;;;2.08;1.00;;;14.20;91.30;;;;;;5012442;28;20063;-83
2024/04/06 04:09:18;;;;;;;1.10;0.70;;;14.10;91.30;;;;;;5013411;28;20022;-83
2024/04/06 04:11:43;;;;;;;1.20;0.80;;;14.20;91.30;;;;;;5012220;28;20109;-82
2024/04/06 04:14:09;;;;;;;2.08;0.90;;;14.10;91.30;;;;;;5013908;28;20485;-83
2024/04/06 04:16:36;;;;;;;2.97;1.02;;;14.20;91.30;;;;;;5012336;28;20093;-83
2024/04/06 04:19:01;;;;;;;1.33;0.80;;;14.10;91.30;;;;;;5012221;28;20487;-82
2024/04/06 04:21:27;;;;;;;1.73;0.85;;;14.30;91.40;;;;;;5013221;28;20022;-82
2024/04/06 04:23:54;;;;;;;1.55;0.80;;;14.10;91.30;;;;;;5012191;28;20036;-83
2024/04/06 04:26:20;;;;;;;1.05;0.73;;;14.20;91.30;;;;;;5012010;28;20076;-82
2024/04/06 04:28:45;;;;;;;1.30;0.80;;;14.20;91.30;;;;;;5012262;28;20026;-83
2024/04/06 04:31:18;;;;;;;1.60;0.90;;;14.10;91.30;;;;;;5011836;28;20391;-82
2024/04/06 04:33:44;;;;;;;1.50;0.80;;;14.10;91.30;;;;;;5013040;28;20018;-82
2024/04/06 04:36:13;;;;;;;1.50;0.90;;;14.10;91.30;;;;;;5013363;28;20026;-83
2024/04/06 04:38:39;;;;;;;1.35;0.75;;;14.20;91.30;;;;;;5013226;28;20026;-83
2024/04/06 04:41:05;;;;;;;1.15;0.82;;;14.10;91.30;;;;;;5013323;28;20025;-82
2024/04/06 04:43:30;;;;;;;1.80;0.80;;;14.10;91.30;;;;;;5011582;28;20037;-81
2024/04/06 04:45:56;;;;;;;1.58;0.80;;;14.20;91.30;;;;;;5012803;28;20105;-83
2024/04/06 04:48:23;;;;;;;1.70;0.82;;;14.10;91.30;;;;;;5011893;28;20029;-83
2024/04/06 04:50:48;;;;;;;1.13;0.80;;;14.30;91.40;;;;;;5012362;28;20087;-82
2024/04/06 04:53:14;;;;;;;1.33;0.73;;;14.20;91.30;;;;;;5011752;28;20555;-82
2024/04/06 04:55:39;;;;;;;2.03;0.90;;;14.20;91.30;;;;;;5011728;28;20029;-83
2024/04/06 04:58:05;;;;;;;1.67;0.80;;;14.20;91.30;;;;;;5011629;28;20119;-83
2024/04/06 05:00:31;;;;;;;1.00;0.75;;;14.10;91.30;;;;;;5012573;28;20026;-82
2024/04/06 05:02:56;;;;;;;1.25;0.80;;;14.20;91.40;;;;;;5013108;28;20041;-83
2024/04/06 05:05:23;;;;;;;1.50;0.80;;;14.00;91.30;;;;;;5011728;28;20030;-82
2024/04/06 05:07:48;;;;;;;1.08;0.70;;;14.20;91.30;;;;;;5012710;28;20101;-82
2024/04/06 05:10:14;;;;;;;1.23;0.70;;;14.20;91.30;;;;;;5011475;28;20068;-84
2024/04/06 05:15:08;;;;;;;0.77;0.65;;;14.10;91.40;;;;;;4989730;28;20053;-82
2024/04/06 05:18:08;;;;;;;2.25;0.90;;;14.30;91.40;;;;;;4991033;28;20022;-82
2024/04/06 05:21:21;;;;;;;0.68;0.47;;;14.10;91.40;;;;;;4972797;28;20073;-83
2024/04/06 05:23:55;;;;;;;1.10;0.70;;;14.20;91.40;;;;;;4954020;28;20031;-82
2024/04/06 05:31:05;;;;;;;1.13;0.80;;;14.10;91.40;;;;;;4912641;29;20683;-84
2024/04/06 05:34:21;;;;;;;1.20;0.73;;;14.20;91.40;;;;;;4912220;29;20036;-83
2024/04/06 05:37:23;;;;;;;1.00;0.65;;;14.30;91.50;;;;;;4896808;29;20401;-81
2024/04/06 05:46:37;;;;;;;1.10;0.70;;;14.20;91.40;;;;;;5026049;23;20050;-83
2024/04/06 05:49:53;;;;;;;1.23;0.60;;;14.20;91.40;;;;;;4994495;28;20084;-83
2024/04/06 05:52:47;;;;;;;0.95;0.70;;;14.20;91.40;;;;;;4969300;28;20043;-82
2024/04/06 05:55:26;;;;;;;1.05;0.73;;;14.50;91.40;;;;;;4923385;29;20066;-84
2024/04/06 05:57:52;;;;;;;0.90;0.77;;;14.50;91.40;;;;;;4966581;28;20038;-82
2024/04/06 06:00:19;;;;;;;1.08;0.80;;;14.20;91.30;;;;;;4989886;28;20037;-83
2024/04/06 06:02:50;;;;;;;1.77;0.80;;;14.20;91.30;;;;;;4993999;28;20471;-83
2024/04/06 06:05:15;;;;;;;1.27;0.80;;;14.20;91.20;;;;;;4976717;28;20088;-83
2024/04/06 06:07:41;;;;;;;1.95;0.90;;;14.50;91.30;;;;;;4973675;28;20035;-82
2024/04/06 06:10:10;;;;;;;1.15;0.70;;;14.40;91.20;;;;;;4973178;28;20125;-81
2024/04/06 06:12:46;;;;;;;0.90;0.60;;;14.30;91.20;;;;;;4973553;28;20031;-82
2024/04/06 06:15:15;;;;;;;2.15;0.80;;;14.30;91.10;;;;;;4973474;28;20500;-81
2024/04/06 06:17:40;;;;;;;1.20;0.70;;;14.40;91.30;;;;;;4974181;28;20047;-81
2024/04/06 06:20:09;;;;;;;1.83;0.80;;;14.40;91.00;;;;;;4974890;28;20483;-82
2024/04/06 06:22:37;;;;;;;1.23;0.57;;;14.40;91.00;;;;;;4973935;28;20093;-82
2024/04/06 06:25:03;;;;;;;1.45;0.73;;;14.60;91.00;;;;;;4977915;28;20023;-81
2024/04/06 06:27:29;;;;;;;1.10;0.70;;;14.40;90.90;;;;;;4976422;28;20027;-82
2024/04/06 06:29:55;;;;;;;1.25;0.80;;;14.40;90.90;;;;;;4976342;28;20023;-83
2024/04/06 06:32:20;;;;;;;1.95;0.70;;;14.50;90.90;;;;;;4975203;28;20188;-83
2024/04/06 06:34:46;;;;;;;1.10;0.80;;;14.40;90.90;;;;;;4976380;28;20033;-83
2024/04/06 06:37:12;;;;;;;1.08;0.70;;;14.40;91.00;;;;;;4976358;28;20034;-83
2024/04/06 06:39:38;;;;;;;0.93;0.60;;;14.40;90.90;;;;;;4958884;28;20165;-83
2024/04/06 06:42:03;;;;;;;1.38;0.80;;;14.40;90.90;;;;;;4976022;28;20030;-83
2024/04/06 06:44:29;;;;;;;1.20;0.77;;;14.50;90.90;;;;;;4974926;28;20104;-83
2024/04/06 06:46:55;;;;;;;1.63;0.82;;;14.50;90.90;;;;;;4974861;28;20058;-84
2024/04/06 06:49:20;;;;;;;0.95;0.70;;;14.50;90.80;;;;;;4976101;28;20082;-82
2024/04/06 06:51:46;;;;;;;2.08;0.80;;;14.60;90.80;;;;;;4976174;28;20033;-84
2024/04/06 06:54:12;;;;;;;1.33;0.80;;;14.50;90.80;;;;;;4974908;28;20117;-84
2024/04/06 06:56:38;;;;;;;0.80;0.70;;;14.50;90.80;;;;;;4975822;28;20046;-83
2024/04/06 06:59:04;;;;;;;1.05;0.70;;;14.50;90.70;;;;;;4974682;28;20035;-84
2024/04/06 07:01:29;;;;;;;0.65;0.60;;;14.50;90.70;;;;;;4974099;28;20027;-83
2024/04/06 07:03:55;;;;;;;0.88;0.68;;;14.60;90.80;;;;;;4974706;28;20085;-84
2024/04/06 07:06:20;;;;;;;1.60;0.80;;;14.60;90.70;;;;;;4974520;28;20550;-84
2024/04/06 07:08:46;;;;;;;1.33;0.73;;;14.60;90.70;;;;;;4975789;28;20110;-84
2024/04/06 07:11:12;;;;;;;1.70;0.80;;;14.60;90.70;;;;;;4974235;28;20023;-84
2024/04/06 07:13:38;;;;;;;0.90;0.68;;;14.60;90.70;;;;;;4974663;28;20023;-83
2024/04/06 07:16:08;;;;;;;1.17;0.80;;;14.60;90.70;;;;;;4974323;28;20035;-83
2024/04/06 07:18:34;;;;;;;1.33;0.70;;;14.70;90.70;;;;;;4975841;28;20066;-83
2024/04/06 07:21:00;;;;;;;1.75;0.85;;;14.70;90.70;;;;;;4975564;28;20443;-84
2024/04/06 07:23:26;;;;;;;0.70;0.70;;;14.60;90.60;;;;;;4974523;28;20117;-83
2024/04/06 07:25:52;;;;;;;1.20;0.77;;;14.70;90.60;;;;;;4975372;28;20053;-83
2024/04/06 07:28:18;;;;;;;0.52;0.52;;;14.60;90.50;;;;;;4975405;28;20042;-83
2024/04/06 07:30:44;;;;;;;1.15;0.70;;;14.70;90.50;;;;;;4975588;28;20030;-83
2024/04/06 07:33:10;;;;;;;0.85;0.55;;;14.70;90.40;;;;;;4975272;28;20436;-84
2024/04/06 07:35:35;;;;;;;1.10;0.70;;;14.60;90.40;;;;;;4974050;28;20546;-83
2024/04/06 07:38:01;;;;;;;0.90;0.60;;;14.70;90.40;;;;;;4975317;28;20395;-84
2024/04/06 07:40:27;;;;;;;2.58;0.68;;;14.70;90.30;;;;;;4973651;28;20031;-84
2024/04/06 07:42:52;;;;;;;1.63;0.70;;;14.80;90.40;;;;;;4973824;28;20031;-84
2024/04/06 07:45:18;;;;;;;0.80;0.70;;;14.80;90.40;;;;;;4973888;28;20031;-83
2024/04/06 07:47:43;;;;;;;0.88;0.75;;;14.70;90.40;;;;;;4974842;28;20146;-84
2024/04/06 07:50:09;;;;;;;1.60;0.80;;;14.80;90.40;;;;;;4973519;28;20110;-84
2024/04/06 07:52:34;;;;;;;0.70;0.60;;;14.80;90.40;;;;;;4957457;28;20109;-84
2024/04/06 07:55:01;;;;;;;1.50;0.68;;;14.80;90.40;;;;;;4973664;28;20035;-83
2024/04/06 07:57:27;;;;;;;1.63;0.88;;;14.80;90.40;;;;;;4974930;28;20070;-84
2024/04/06 07:59:55;;;;;;;1.65;0.90;;;14.80;90.40;;;;;;4973187;28;20373;-82
2024/04/06 08:02:21;;;;;;;1.63;0.70;;;14.80;90.40;;;;;;4973437;28;20023;-82
2024/04/06 08:04:47;;;;;;;1.20;0.70;;;14.70;90.40;;;;;;4974440;28;20439;-83
2024/04/06 08:07:12;;;;;;;1.00;0.68;;;14.80;90.40;;;;;;4973192;28;20031;-83
2024/04/06 08:09:38;;;;;;;0.70;0.57;;;14.80;90.40;;;;;;4972871;28;20118;-82
2024/04/06 08:12:03;;;;;;;0.57;0.57;;;14.80;90.40;;;;;;4973313;28;20039;-82
2024/04/06 08:14:29;;;;;;;1.13;0.70;;;14.80;90.40;;;;;;4973318;28;20054;-81
2024/04/06 08:16:55;;;;;;;0.90;0.77;;;14.90;90.50;;;;;;4973146;28;20038;-82
2024/04/06 08:19:20;;;;;;;1.83;0.70;;;14.80;90.40;;;;;;4973149;28;20488;-82
2024/04/06 08:21:46;;;;;;;1.10;0.60;;;14.90;90.50;;;;;;4974391;28;20357;-83
2024/04/06 08:24:11;;;;;;;1.52;0.75;;;14.80;90.40;;;;;;4972880;28;20033;-83
2024/04/06 08:26:37;;;;;;;1.55;0.63;;;14.90;90.40;;;;;;4974341;28;20023;-80
2024/04/06 08:29:02;;;;;;;1.33;0.70;;;14.80;90.30;;;;;;4974280;28;20062;-82
2024/04/06 08:31:28;;;;;;;0.68;0.57;;;14.90;90.30;;;;;;4974089;28;20023;-81
2024/04/06 08:33:54;;;;;;;1.63;0.75;;;15.00;90.30;;;;;;4972704;28;20060;-82
2024/04/06 08:36:19;;;;;;;1.10;0.70;;;15.10;90.30;;;;;;4972849;28;20022;-81
2024/04/06 08:38:45;;;;;;;0.80;0.60;;;15.00;90.20;;;;;;4973032;28;20031;-82
2024/04/06 08:41:10;;;;;;;1.45;0.80;;;15.10;90.20;;;;;;4973906;28;20034;-82
2024/04/06 08:43:49;;;;;;;2.35;0.63;;;15.10;90.10;;;;;;4973952;28;20113;-82
2024/04/06 08:46:15;;;;;;;0.75;0.70;;;15.10;90.10;;;;;;4974220;28;20082;-81
2024/04/06 08:48:43;;;;;;;0.47;0.47;;;15.20;90.10;;;;;;4972757;28;20027;-83
2024/04/06 08:51:11;;;;;;;0.90;0.60;;;15.10;90.10;;;;;;4974062;28;20077;-81
2024/04/06 08:53:37;;;;;;;0.93;0.60;;;15.30;90.10;;;;;;4974266;28;20026;-82
2024/04/06 08:56:06;;;;;;;1.48;0.77;;;15.30;90.00;;;;;;4974106;28;20106;-83
2024/04/06 08:58:33;;;;;;;1.30;0.75;;;15.30;90.00;;;;;;4972590;28;20411;-82
2024/04/06 09:00:59;;;;;;;1.40;0.90;;;15.40;90.00;;;;;;4973407;28;20030;-82
2024/04/06 09:03:26;;;;;;;1.83;0.80;;;15.40;90.00;;;;;;4972449;28;20042;-83
2024/04/06 09:05:52;;;;;;;0.77;0.65;;;15.40;90.00;;;;;;4956607;28;20062;-82
2024/04/06 09:08:17;;;;;;;1.10;0.60;;;15.30;90.00;;;;;;4973708;28;20520;-83
2024/04/06 09:10:46;;;;;;;1.52;0.70;;;15.40;90.00;;;;;;4972235;28;20118;-82
2024/04/06 09:13:12;;;;;;;2.70;0.63;;;15.30;90.00;;;;;;4973679;28;20531;-82
2024/04/06 09:15:38;;;;;;;1.48;0.70;;;15.20;90.00;;;;;;4988764;28;20113;-81
2024/04/06 09:18:03;;;;;;;0.88;0.63;;;15.40;90.10;;;;;;4974245;28;20126;-82
2024/04/06 09:20:29;;;;;;;1.50;0.50;;;15.30;90.00;;;;;;4973699;28;20106;-84
2024/04/06 09:22:56;;;;;;;0.80;0.60;;;15.30;90.00;;;;;;4959586;28;20521;-84
2024/04/06 09:25:22;;;;;;;1.50;0.65;;;15.40;90.00;;;;;;4975571;28;20073;-80
2024/04/06 09:27:48;;;;;;;1.15;0.63;;;15.40;90.00;;;;;;4993237;28;20026;-83
2024/04/06 09:30:14;;;;;;;1.55;0.88;;;15.40;90.00;;;;;;4993277;28;20037;-82
2024/04/06 09:32:40;;;;;;;1.35;0.63;;;15.40;89.90;;;;;;4970050;28;20030;-82
2024/04/06 09:35:07;;;;;;;1.30;0.52;;;15.40;89.80;;;;;;4957076;28;20125;-83
2024/04/06 09:37:33;;;;;;;0.80;0.60;;;15.50;89.70;;;;;;4976734;28;20041;-82
2024/04/06 09:39:59;;;;;;;1.15;0.60;;;15.40;89.60;;;;;;4976976;28;20031;-82
2024/04/06 09:42:25;;;;;;;0.70;0.70;;;15.60;89.50;;;;;;4977687;28;20054;-83
2024/04/06 09:44:54;;;;;;;1.00;0.60;;;15.60;89.40;;;;;;4977702;28;20093;-80
2024/04/06 09:47:22;;;;;;;2.22;0.80;;;15.60;89.30;;;;;;4960178;28;20031;-80
2024/04/06 09:49:51;;;;;;;0.88;0.70;;;15.70;89.30;;;;;;4977110;28;20014;-81
2024/04/06 09:52:18;;;;;;;1.25;0.60;;;15.70;89.20;;;;;;4977162;28;20023;-81
2024/04/06 09:54:45;;;;;;;1.33;0.60;;;15.70;89.10;;;;;;4964407;28;20035;-79
2024/04/06 09:57:13;;;;;;;0.85;0.70;;;15.70;89.00;;;;;;4998253;28;20026;-80
2024/04/06 09:59:40;;;;;;;1.23;0.70;;;15.70;89.00;;;;;;4996709;28;20033;-80
2024/04/06 10:02:06;;;;;;;1.30;0.70;;;15.70;89.10;;;;;;4979247;28;20076;-80
2024/04/06 10:04:36;;;;;;;0.77;0.60;;;15.80;89.20;;;;;;4995519;28;20410;-81
2024/04/06 10:07:04;;;;;;;1.77;0.80;;;15.70;89.40;;;;;;4997063;28;20034;-80
2024/04/06 10:09:35;;;;;;;1.75;0.73;;;15.60;89.50;;;;;;4997190;28;20018;-85
2024/04/06 10:12:02;;;;;;;1.70;0.70;;;15.60;89.60;;;;;;4977438;28;20030;-84
2024/04/06 10:14:29;;;;;;;1.05;0.60;;;15.50;90.10;;;;;;4979141;28;20035;-87
2024/04/06 10:17:08;;;;;;;2.67;1.10;;;15.50;89.90;;;;;;4978057;28;20054;-83
2024/04/06 10:19:40;;;;;;;1.13;0.75;;;15.50;90.00;;;;;;4976740;28;20106;-84
2024/04/06 10:22:07;;;;;;;1.13;0.65;;;15.50;90.10;;;;;;4975045;28;20518;-84
2024/04/06 10:24:36;;;;;;;1.42;0.82;;;15.40;90.00;;;;;;4975117;28;20027;-84
2024/04/06 10:27:02;;;;;;;1.92;0.77;;;15.40;90.00;;;;;;4975478;28;20111;-84
2024/04/06 10:29:29;;;;;;;1.23;0.80;;;15.40;90.00;;;;;;4975231;28;20029;-83
2024/04/06 10:31:55;;;;;;;0.98;0.80;;;15.40;90.10;;;;;;4975362;28;20035;-84
2024/04/06 10:34:21;;;;;;;2.63;0.93;;;15.40;90.30;;;;;;4975185;28;20031;-84
2024/04/06 10:36:47;;;;;;;1.38;0.80;;;15.50;90.10;;;;;;4975586;28;20023;-84
2024/04/06 10:39:14;;;;;;;1.48;0.82;;;15.40;90.10;;;;;;4976772;28;20384;-85
2024/04/06 10:41:44;;;;;;;1.30;0.85;;;15.40;90.10;;;;;;4975464;28;20069;-84
2024/04/06 10:44:10;;;;;;;0.98;0.68;;;15.40;90.00;;;;;;4979609;28;20014;-84
2024/04/06 10:46:36;;;;;;;1.92;0.90;;;15.50;90.20;;;;;;4995103;28;20034;-82
2024/04/06 10:49:09;;;;;;;1.35;0.80;;;15.40;90.10;;;;;;4994542;28;20422;-83
2024/04/06 10:51:36;;;;;;;1.58;0.90;;;15.60;90.00;;;;;;4996085;28;20482;-82
2024/04/06 10:54:02;;;;;;;2.10;0.88;;;15.60;90.10;;;;;;4994569;28;20026;-82
2024/04/06 10:56:28;;;;;;;1.90;0.93;;;15.50;90.00;;;;;;4996001;28;20027;-83
2024/04/06 10:58:54;;;;;;;2.53;1.00;;;15.60;90.10;;;;;;4994563;28;20048;-83
2024/04/06 11:01:20;;;;;;;1.90;0.80;;;15.50;90.30;;;;;;4994212;28;20069;-86
2024/04/06 11:03:50;;;;;;;0.98;0.70;;;15.60;90.20;;;;;;4994393;28;20022;-86
2024/04/06 11:06:16;;;;;;;1.77;0.98;;;15.70;90.10;;;;;;4994397;28;20053;-85
2024/04/06 11:08:41;;;;;;;3.85;1.00;;;15.60;90.10;;;;;;4996193;28;20046;-86
2024/04/06 11:11:10;;;;;;;1.50;0.90;;;15.70;90.10;;;;;;4994230;28;20029;-86
2024/04/06 11:13:40;;;;;;;1.92;0.80;;;15.80;90.10;;;;;;4993916;28;20023;-86
2024/04/06 11:16:06;;;;;;;1.98;0.98;;;15.70;90.00;;;;;;4993967;28;20054;-87
2024/04/06 11:18:42;;;;;;;4.97;1.10;;;15.70;90.00;;;;;;4975556;28;20035;-86
2024/04/06 11:21:10;;;;;;;2.25;0.90;;;15.70;90.00;;;;;;4986425;28;20741;-85
2024/04/06 11:23:40;;;;;;;2.38;1.00;;;15.70;90.00;;;;;;4974638;28;20146;-85
2024/04/06 11:26:09;;;;;;;2.30;0.93;;;15.80;90.10;;;;;;4976027;28;20027;-86
2024/04/06 11:28:35;;;;;;;2.25;0.80;;;15.80;89.90;;;;;;4975363;28;20153;-86
2024/04/06 11:31:00;;;;;;;2.47;0.93;;;15.80;89.90;;;;;;4973867;28;20491;-86
2024/04/06 11:33:27;;;;;;;1.73;1.00;;;15.80;89.90;;;;;;4986382;28;20029;-85
2024/04/06 11:35:53;;;;;;;2.25;0.95;;;15.90;89.80;;;;;;4994930;28;20117;-86
2024/04/06 11:38:19;;;;;;;2.03;0.98;;;15.90;89.60;;;;;;4977320;28;20088;-86
2024/04/06 11:40:47;;;;;;;2.15;1.08;;;15.80;89.60;;;;;;4994606;28;20459;-86
2024/04/06 11:43:14;;;;;;;3.38;0.90;;;15.90;89.60;;;;;;4977567;28;20042;-86
2024/04/06 11:45:40;;;;;;;2.90;1.10;;;15.70;89.40;;;;;;4977025;28;20395;-85
2024/04/06 11:48:06;;;;;;;2.67;1.00;;;15.80;89.50;;;;;;4977199;28;20065;-85
2024/04/06 11:50:32;;;;;;;3.13;1.00;;;15.90;89.50;;;;;;4976123;28;20100;-85
2024/04/06 11:52:57;;;;;;;1.63;1.00;;;15.80;89.50;;;;;;4967620;28;20034;-85
2024/04/06 11:55:23;;;;;;;2.92;0.90;;;15.80;89.60;;;;;;4963126;28;20034;-83
2024/04/06 11:57:49;;;;;;;3.10;0.95;;;15.80;89.50;;;;;;4984939;28;20031;-85
2024/04/06 12:00:15;;;;;;;1.58;0.90;;;15.80;89.60;;;;;;4974518;28;20030;-85
2024/04/06 12:02:41;;;;;;;2.58;1.00;;;15.80;89.50;;;;;;4974065;28;20081;-85
2024/04/06 12:05:07;;;;;;;3.13;1.15;;;15.80;89.60;;;;;;4975461;28;20034;-85
2024/04/06 12:07:33;;;;;;;2.30;1.15;;;15.70;89.50;;;;;;4974609;28;20031;-87
2024/04/06 12:09:59;;;;;;;4.97;1.17;;;15.70;89.60;;;;;;4978982;28;20027;-86
2024/04/06 12:12:24;;;;;;;1.42;0.93;;;15.80;89.70;;;;;;4974684;28;20041;-86
2024/04/06 12:14:50;;;;;;;2.72;1.20;;;15.70;89.80;;;;;;4973550;28;20042;-86
2024/04/06 12:17:26;;;;;;;4.68;1.20;;;15.70;89.80;;;;;;4973619;28;20042;-87
2024/04/06 12:19:52;;;;;;;3.20;1.02;;;15.80;89.90;;;;;;4973451;28;20026;-87
2024/04/06 12:22:19;;;;;;;2.13;1.08;;;15.60;89.80;;;;;;4973648;28;20026;-86
2024/04/06 12:24:44;;;;;;;2.45;1.15;;;15.60;89.90;;;;;;4975073;28;20031;-87
2024/04/06 12:27:11;;;;;;;2.00;1.00;;;15.70;90.20;;;;;;4974868;28;20037;-87
2024/04/06 12:29:37;;;;;;;3.45;1.20;;;15.70;89.80;;;;;;4974587;28;20677;-87
2024/04/06 12:32:03;;;;;;;2.85;1.20;;;15.60;89.70;;;;;;4973513;28;20022;-87
2024/04/06 12:34:29;;;;;;;2.13;1.00;;;15.70;89.80;;;;;;4973776;28;20054;-87
2024/04/06 12:37:00;;;;;;;2.88;1.10;;;15.70;89.80;;;;;;4974718;28;20057;-87
2024/04/06 12:39:25;;;;;;;2.90;1.15;;;15.70;89.70;;;;;;4974590;28;20054;-87
2024/04/06 12:41:51;;;;;;;2.40;1.13;;;15.70;89.70;;;;;;4973440;28;20436;-87
2024/04/06 12:44:17;;;;;;;2.05;1.15;;;15.70;89.80;;;;;;4973387;28;20033;-87
2024/04/06 12:46:42;;;;;;;2.10;1.00;;;15.70;89.70;;;;;;4973013;28;20030;-87
2024/04/06 12:49:08;;;;;;;2.70;1.20;;;15.60;89.60;;;;;;4974868;28;20089;-86
2024/04/06 12:51:33;;;;;;;2.90;1.40;;;15.70;89.70;;;;;;4972552;28;20476;-86
2024/04/06 12:53:59;;;;;;;2.17;1.20;;;15.60;89.60;;;;;;4972793;28;20027;-87
2024/04/06 12:56:25;;;;;;;2.95;1.10;;;15.70;89.60;;;;;;4974484;28;20058;-87
2024/04/06 12:58:52;;;;;;;2.13;1.20;;;15.70;89.60;;;;;;4972995;28;20034;-86
2024/04/06 13:01:18;;;;;;;2.22;1.10;;;15.60;89.50;;;;;;4974677;28;20046;-86